Villa Caliz, Puerto Rico
Current Conditions -  °F | °C
As of 12:56 PM on Saturday 20 Dec 2014 (Local Time) from TJSJ Reporting Station
Scattered Clouds Scattered Clouds  
Wind Chill: 85°   Ceiling: Unl
Heat Index: 90°   Visibility: 10mi
Dew Point: 71°   Wind: 16mph
Humidity: 63%   Direction: 50°NE
Pressure: 30.02"   Gusts: NA
Location:  18.2351°N, 66.0374°W
Report Text: TJSJ 201656Z 05014KT 10SM FEW038 SCT065 29/22 A3002 RMK AO2 SLP163 T02940217
Loading
Personal Weather Stations






























Interactive Weather Map New forecast layout! Learn more

10-Day Weather Forecast

Advertisements
Track Severe Weather on mobile